Extreme weather reports worldwide

Snow

Station
 
Location
 
Name
 
Wind
Knots
Gust
Knots
Vis
SM
Temp/Dew
C
Baro
inHg
METAR
 
KMWN 82 88 0 -25/-25 KMWN 240251Z 31082G88KT 0SM FZFG BLSN VV000 M25/M25 RMK PK WND 31092/51 VRY LGT ICG MOON DMLY VSBL
YRF CYCA Cartwright, CA Cartwright Airport 25 38 1.25 0/-1 29.33 CYCA 240300Z AUTO 05025G38KT 1 1/4SM -SN OVC008 00/M01 A2933 RMK SLP934
YYR CYYR Goose Bay, CA Goose Bay Airport 25 32 3 0/0 29.38 CYYR 240300Z 01025G32KT 3SM -SN OVC008 00/M00 A2938 RMK SF8 SLP951
YRJ CYRJ Roberval, CA Roberval Airport 20 31 8 -14/-17 29.87 CYRJ 240300Z 31020G31KT 8SM -SN DRSN OVC055 M14/M17 A2987 RMK NS8 SLP135
ZBF CZBF Bathurst, CA Bathurst Airport 19 31 2.25 -8/-11 29.26 CZBF 240334Z AUTO 28019G31KT 260V320 2 1/4SM -SN OVC033 M08/M11 A2926 RMK VIS VRB 1-3 SLP919

Station
 
Location
 
Name
 
Wind
Knots
Gust
Knots
Vis
SM
Temp/Dew
C
Baro
inHg
METAR
 
YWK CYWK Wabush, CA Wabush Airport 22 30 6 -4/-6 29.50 CYWK 240333Z AUTO 03022G30KT 6SM -SN FEW016 OVC027 M04/M06 A2950 RMK SLP028
HHN EDFH Frankfurt am Main, DE Frankfurt-Hahn Airport 18 30 2.49 -1/-1 29.29 EDFH 240320Z 28018G30KT 4000 -SN BR BKN005 M01/M01 Q0992
DQH PALP Nuiqsut, US Alpine Airstrip 18 30 0.5 -19/-21 29.97 PALP 240312Z 07018G30KT 1/2SM BLSN FZFG VV001 M19/M21 A2997
YBG CYBG Bagotville, CA CFB Bagotville 24 29 3 -14/-16 29.81 CYBG 240300Z 28024G29KT 3SM -SN BLSN FEW015 BKN025 OVC050 M14/M16 A2981 RMK SC2SC3SC3 VIS VRB 2-4 SLP111
ZUM CZUM Churchill Falls, CA Churchill Falls Airport 18 26 4 -2/-5 29.46 CZUM 240333Z AUTO 02018G26KT 4SM -SN BKN019 OVC027 M02/M05 A2946 RMK SLP002
PQI KPQI Presque Isle, US Presque Isle International Airport 18 25 2.5 -11/-14 29.52 KPQI 240335Z AUTO 29018G25KT 2 1/2SM -SN BKN014 BKN019 OVC026 M11/M14 A2952 RMK AO2 VIS 1 1/2V4 SNB05 P0000
YBC CYBC Baie-Comeau, CA Baie Comeau Airport 10 24 7 -6/-9 29.40 CYBC 240300Z AUTO 32010G24KT 290V350 7SM -SN OVC044 M06/M09 A2940 RMK SLP957
KDWX 17 23 2.5 -1/-3 29.85 KDWX 240315Z AUTO 17017G23KT 2 1/2SM -SN OVC016 M02/M03 A2985 RMK AO2 T10191035
ITH KITH Ithaca, US Ithaca Tompkins Regional Airport 18 22 2.5 -8/-10 30.21 KITH 240336Z AUTO 31018G22KT 2 1/2SM R32/6000VP6000FT -SN BR SCT014 BKN019 OVC024 M08/M10 A3021 RMK AO2 VIS 1 1/2V4 P0000
WFK KFVE Frenchville, US Northern Aroostook Regional Airport 16 22 5 -11/-15 29.45 KFVE 240326Z AUTO 30016G22KT 5SM -SN FEW021 SCT029 OVC050 M11/M15 A2945 RMK AO2 PK WND 31026/0255 P0000 T11111150
CAR KCAR Caribou, US Caribou Municipal Airport 15 22 1.5 -9/-14 29.49 KCAR 240320Z AUTO 30015G22KT 1 1/2SM -SN OVC021 M09/M14 A2949 RMK AO2 SNB01 P0000 T10941144
YAY CYAY St. Anthony, CA St. Anthony Airport 16 21 2.5 -3/-3 29.15 CYAY 240331Z AUTO 26016G21KT 2 1/2SM -SN SCT007 OVC025 M03/M03 A2915 RMK ICG PAST HR SLP876
YQM CYQM Moncton, CA Greater Moncton Roméo LeBlanc International Airport 15 21 8 -8/-12 29.38 CYQM 240319Z 25015G21KT 8SM -SHSN OVC048 M08/M12 A2938 RMK SC8 CVCTV CLD EMBD SLP953
YWG CYWG Winnipeg, CA Winnipeg / James Armstrong Richardson International Airport 14 21 15 -11/-14 29.94 CYWG 240300Z 27014G21KT 15SM -SN DRSN OVC021 M11/M14 A2994 RMK SC8 SLP158
YZV CYZV Sept-ÃŽles, CA Sept-ÃŽles Airport 13 21 15 1/-4 29.22 CYZV 240300Z 36013G21KT 15SM DRSN OVC060 01/M04 A2922 RMK SC8 SLP900
K0CO 11 21 4 -13/-22 29.76 K0CO 240335Z AUTO 30011G21KT 4SM -SN SCT001 BKN019 OVC025 M13/M22 A2976 RMK AO2
YZX CYZX Greenwood, CA CFB Greenwood 14 20 6 -6/-10 29.48 CYZX 240320Z 22014G20KT 6SM -SHSN DRSN OVC025 M06/M10 A2948 RMK CF8 SLP985
K5SM 11 20 4 -10/-11 29.86 K5SM 240308Z AUTO 22011G20KT 4SM -SN BKN001 OVC009 M10/M11 A2986 RMK AO2
KTS PFKT Brevig Mission, US Brevig Mission Airport 10 20 4 -11/-14 29.79 PFKT 240337Z AUTO 34010G20KT 4SM -SN FEW024 SCT029 OVC044 M11/M14 A2979 RMK AO2 PK WND 01026/0319 PRESRR P0000 FZRANO
KACQ Waseca, US Waseca Municipal Airport 14 19 1 -7/-9 30.04 KACQ 240335Z AUTO 15014G19KT 1SM -SN OVC007 M07/M09 A3004 RMK AO2
MSV KMSV Monticello, US Sullivan County International Airport 13 19 9 -9/-13 30.10 KMSV 240327Z AUTO 30013G19KT 9SM -SN SCT025 M09/M13 A3010 RMK AO2 P0000 FZRANO
AEL KAEL Albert Lea, US Albert Lea Municipal Airport 11 19 3 -8/-11 30.02 KAEL 240335Z AUTO 15011G19KT 3SM -SN OVC017 M08/M11 A3002 RMK AO2
YMH CYMH Mary's Harbour, CA Mary's Harbour Airport 11 18 0.75 0/0 29.14 CYMH 240300Z AUTO 03011G18KT 3/4SM -SN OVC006 M00/M00 A2914 RMK SLP873
KTOB Dodge Center, US Dodge Center Airport 13 17 10 -9/-11 30.03 KTOB 240335Z AUTO 14013G17KT 10SM -SN SCT016 SCT027 BKN036 M09/M11 A3003 RMK AO2
KOOA Oskaloosa, US Oskaloosa Municipal Airport 12 17 4 0/-4 30.07 KOOA 240335Z AUTO 15012G17KT 4SM -SN SCT013 BKN034 OVC060 M01/M05 A3007 RMK AO2 T10081048
YQD CYQD The Pas, CA The Pas Airport 11 16 9 -26/-29 30.11 CYQD 240335Z AUTO 32011G16KT 9SM -SN FEW017 M26/M29 A3011 RMK SLP234
YKL CYKL Schefferville, CA Schefferville Airport 11 16 5 -6/-7 29.71 CYKL 240335Z AUTO 36011G16KT 5SM -SN SCT013 BKN018 BKN024 OVC034 M06/M07 A2971 RMK SLP104
YPS CYPD Port Hawkesbury, CA Port Hawkesbury Airport 10 16 4 -5/-6 29.35 CYPD 240324Z AUTO 30010G16KT 4SM -SN SCT009 OVC019 M05/M06 A2935 RMK SLP946
AKO KAKO Akron, US Colorado Plains Regional Airport 11 15 7 -3/-5 29.87 KAKO 240335Z AUTO 01011G15KT 7SM -SN OVC011 M04/M06 A2987 RMK AO2 SNB0256 P0000 T10391056 $
MSA CZMD Muskrat Dam, CA Muskrat Dam Airport 8 15 9 -19/-22 30.06 CZMD 240300Z AUTO 10008G15KT 070V140 9SM -SN BKN037 OVC048 M19/M22 A3006 RMK SLP214
K6B9 7 15 6 -8/-11 30.22 K6B9 240335Z AUTO 31007G15KT 280V340 6SM -SN FEW015 BKN025 OVC031 M08/M11 A3022 RMK AO2
FXY KFXY Forest City, US Forest City Municipal Airport 9 14 3 -7/-7 30.02 KFXY 240335Z AUTO 13009G14KT 3SM -SN BKN026 OVC035 M07/M07 A3002 RMK AO2
WAA PAIW Wales, US Wales Airport 26 0.75 -16/-17 29.90 PAIW 240333Z AUTO 36026KT 3/4SM -SN BR BKN014 OVC019 M16/M17 A2990 RMK AO2 PK WND 36029/0319 P0000 FZRANO
EGS BIEG Egilsstaðir, IS Egilsstaðir Airport 26 0.93 -1/-2 29.70 BIEG 240300Z 01026KT 1500 R04/1500U -SN DRSN BKN007 OVC015 M01/M02 Q1006 R04/790391
PHO PAPO Point Hope, US Point Hope Airport 24 0.75 -14/-16 29.82 PAPO 240327Z AUTO 35024KT 3/4SM -SN BR CLR M14/M16 A2982 RMK AO2 PK WND 34028/0327 P0000 FZRANO
ATK PATQ Atqasuk, US Atqasuk Edward Burnell Sr Memorial Airport 23 1.25 -19/-21 29.90 PATQ 240320Z AUTO 07023KT 1 1/4SM -SN BR CLR M19/M21 A2990 RMK AO2 PK WND 07027/0315 FZRANO TSNO PNO $
YRB CYRB Resolute Bay, CA Resolute Bay Airport 20 5 -10/-12 30.34 CYRB 240300Z 11020KT 5SM -SN BLSN FEW010 BKN022 OVC045 M10/M12 A3034 RMK ST2SC4SC2 SLP285
YHK CYHK Gjoa Haven, CA Gjoa Haven Airport 20 1.25 -27/-29 30.49 CYHK 240330Z AUTO 19020KT 1 1/4SM -SN CLR M27/M29 A3049 RMK SLP329
YJT CYJT Stephenville, CA Stephenville Airport 19 2 -2/-5 29.29 CYJT 240335Z 23019KT 2SM -SN SCT007 OVC016 M02/M05 A2929 RMK SF4SC4 SLP921
YCB CYCB Cambridge Bay, CA Cambridge Bay Airport 19 7 -17/-20 30.06 CYCB 240312Z 14019KT 7SM -SN DRSN SCT007 BKN016 BKN220 M17/M20 A3006 RMK SF4SC2CI1 OCNL BLSN SLP184
YYY CYYY Mont-Joli, CA Mont Joli Airport 19 0.5 -7/-9 29.48 CYYY 240300Z 29019KT 1/2SM R06/6000FT/N SN BLSN VV006 M07/M09 A2948 RMK SN8 /S04/ SLP989
K5H4 17 10 -14/-17 30.04 K5H4 240335Z AUTO 31017KT 10SM -SN M14/M17 A3004 RMK AO2
YUL CYUL Montréal, CA Montreal / Pierre Elliott Trudeau International Airport 17 15 -14/-19 30.13 CYUL 240300Z 26017KT 15SM DRSN FEW010 M14/M19 A3013 RMK SF1 SF TR SLP207
ACH LSZR Altenrhein, CH St Gallen Altenrhein Airport 16 2.17 2/2 29.47 LSZR 240320Z AUTO 27016KT 3500 -RASN BKN007 02/02 Q0998
UAAT Ak Bashat village, KG Ak Bashat Airport 16 2.67 -5/-6 30.50 UAAT 240330Z 21008MPS 4300 -SHSN BLSN OVC015CB M05/M06 Q1033 R20/493032 TEMPO 1000 SHSN RMK QFE722/0963